createdAt,value
2019-03-19T00:10:23.363Z,20.00
2019-03-19T00:23:46.176Z,20.00
2019-03-19T00:37:09.004Z,20.00
2019-03-19T00:50:31.803Z,20.00
2019-03-19T01:03:54.614Z,20.00
2019-03-19T01:17:17.459Z,20.00
2019-03-19T01:30:40.284Z,20.00
2019-03-19T01:44:03.097Z,20.00
2019-03-19T01:57:25.846Z,20.00
2019-03-19T02:10:48.697Z,20.00
2019-03-19T02:24:11.519Z,20.00
2019-03-19T02:37:34.325Z,20.00
2019-03-19T02:50:57.141Z,20.00
2019-03-19T03:04:19.977Z,20.00
2019-03-19T03:17:42.836Z,20.00
2019-03-19T03:31:05.603Z,20.00
2019-03-19T03:44:28.416Z,20.00
2019-03-19T03:57:51.200Z,20.00
2019-03-19T04:11:14.060Z,20.00
2019-03-19T04:24:36.832Z,20.00
2019-03-19T04:37:59.699Z,20.00
2019-03-19T04:51:22.492Z,20.00
2019-03-19T05:04:45.339Z,20.00
2019-03-19T05:31:09.869Z,20.00
2019-03-19T05:44:17.145Z,20.00
2019-03-19T05:57:24.427Z,20.00
2019-03-19T06:10:31.688Z,20.00
2019-03-19T06:23:39.026Z,19.90
2019-03-19T06:37:03.076Z,20.00
2019-03-19T06:50:27.916Z,20.00
2019-03-19T07:03:48.732Z,18.90
2019-03-19T07:17:11.540Z,18.40
2019-03-19T07:30:34.350Z,18.60
2019-03-19T07:56:58.823Z,19.70
2019-03-19T08:23:11.731Z,19.70
2019-03-19T08:49:24.554Z,19.60
2019-03-19T09:02:31.860Z,19.60
2019-03-19T09:15:39.124Z,19.50
2019-03-19T09:28:46.392Z,19.50
2019-03-19T09:41:53.706Z,19.50
2019-03-19T09:55:17.909Z,19.50
2019-03-19T10:08:40.690Z,19.50
2019-03-19T10:22:03.544Z,20.00
2019-03-19T10:35:26.322Z,20.00
2019-03-19T10:48:49.144Z,20.10
2019-03-19T11:02:11.986Z,20.10
2019-03-19T11:28:36.451Z,20.10
2019-03-19T11:41:43.769Z,20.10
2019-03-19T11:54:51.076Z,20.10
2019-03-19T12:07:58.379Z,20.10
2019-03-19T12:21:05.671Z,20.00
2019-03-19T12:34:29.748Z,20.00
2019-03-19T12:47:52.661Z,20.00
2019-03-19T13:01:15.549Z,20.00
2019-03-19T13:14:38.187Z,20.00
2019-03-19T13:28:00.987Z,19.90
2019-03-19T13:41:23.802Z,19.90
2019-03-19T13:54:46.667Z,20.00
2019-03-19T14:08:09.445Z,20.00
2019-03-19T14:21:32.264Z,20.00
2019-03-19T14:34:55.108Z,20.00
2019-03-19T14:48:17.944Z,20.00
2019-03-19T15:01:40.745Z,20.00
2019-03-19T15:15:03.532Z,20.00
2019-03-19T15:28:26.339Z,20.10
2019-03-19T15:41:49.283Z,20.20
2019-03-19T15:55:11.966Z,20.20
2019-03-19T16:08:34.803Z,20.40
2019-03-19T16:21:57.626Z,20.40
2019-03-19T16:35:20.453Z,20.50
2019-03-19T16:48:43.263Z,20.40
2019-03-19T17:02:06.100Z,20.40
2019-03-19T17:15:28.885Z,20.40
2019-03-19T17:28:51.719Z,20.40
2019-03-19T17:55:16.231Z,20.50
2019-03-19T18:08:23.547Z,20.50
2019-03-19T18:21:30.854Z,20.50
2019-03-19T18:34:38.234Z,20.40
2019-03-19T18:47:45.572Z,20.20
2019-03-19T19:01:09.496Z,20.10
2019-03-19T19:40:40.479Z,19.90
2019-03-19T19:53:47.840Z,20.00
2019-03-19T20:06:55.128Z,20.00
2019-03-19T20:20:02.449Z,20.00
2019-03-19T20:33:09.744Z,20.00
2019-03-19T20:46:33.732Z,20.00
2019-03-19T20:59:56.520Z,20.00
2019-03-19T21:13:19.435Z,20.00
2019-03-19T21:26:42.166Z,20.00
2019-03-19T21:40:05.064Z,20.00
2019-03-19T21:53:27.874Z,20.00
2019-03-19T22:06:50.620Z,20.00
2019-03-19T22:20:13.424Z,20.00
2019-03-19T22:33:36.373Z,20.00
2019-03-19T22:46:59.171Z,20.00
2019-03-19T23:00:21.909Z,20.00
2019-03-19T23:13:44.710Z,20.00
2019-03-19T23:27:07.527Z,20.00
2019-03-19T23:40:30.322Z,20.00
2019-03-19T23:53:53.167Z,20.00
